Arnegard, ND (58835)

6:02 AM CDT on July 30, 2016 (GMT -0500)
Arnegard, ND | | Change Station

Elev 2146 ft 47.87 °N, 103.39 °W | Updated 9 seconds ago

Clear
Clear
47.7 °F
Feels Like 48 °F
N
0.0
Wind Variable Wind from NE
Gusts 0.0 mph

Today
High -- | Low -- °F
--% Chance of Precip.
Yesterday
High -- | Low -- °F
Precip. -- in
Pressure 29.88 in
Visibility 10.0 miles
Clouds Clear
Windchill 48 °F
Dew Point 47 °F
Humidity 96%
Rainfall 0.00 in
Snow Depth Not available.
6:28 AM 9:30 PM
Waning Crescent, 14% visible
METAR KISN 301052Z AUTO 00000KT 10SM CLR 13/12 A2989 RMK AO2 SLP117 T01330117
Pressure 29.88 in
Visibility 10.0 miles
Clouds Clear
Windchill 48 °F
Dew Point 47 °F
Humidity 96%
Rainfall 0.00 in
Snow Depth Not available.
6:28 AM 9:30 PM
Waning Crescent, 14% visible
METAR KISN 301052Z AUTO 00000KT 10SM CLR 13/12 A2989 RMK AO2 SLP117 T01330117

10-Day Weather Forecast

Almanac

Astronomy

Jul. 30, 2016 Rise Set
Actual Time
Civil Twilight
Nautical Twilight
Astronomical Twilight
Moon
Length of Visible Light
Length of Day
Tomorrow will be .
, % of the Moon is Illuminated

Today's Extremes

State Highs State Lows

Community

WunderPhotos

Upload Photos

1,928,530 photos uploaded!

WunderBlog® & News

Nearby

Air Quality

  Air Quality AQ Index Pollutant
Not available.

Snow Depth

Station Depth Elevation

Earthquake Activity

City Distance Mag. Time & Date
Minimum magnitude displayed is 2.5.

Coastal Water Temperatures

Place Temperature

Stations

Nearby Weather Stations

Station Location Temp. Windchill Dew Point Humidity Wind Precip. Elev Updated Type
                   

Watches & Warnings

There are currently no watches in effect.